TAF Text Data
IDs:
Format:
Raw Decoded Include METAR

Data at: 0754 UTC 01 Aug 2021

KMSL 010526Z 0106/0206 VRB03KT P6SM SCT250
  FM010800 VRB03KT P6SM VCSH SCT035 BKN250
  FM011400 30005KT P6SM VCSH BKN030
  FM012100 33012KT P6SM SCT250